Seelyville, Indiana
Current Conditions -  °F | °C
As of 9:53 PM on Thursday 27 Nov 2014 (Local Time) from KHUF Reporting Station
Clear Clear  
Wind Chill: 13°   Ceiling: Unl
Heat Index: 21°   Visibility: 10mi
Dew Point: 16°   Wind: 6mph
Humidity: 81%   Direction: 270°W
Pressure: 30.45"   Gusts: NA
Location:  39.49°N, 87.27°W
Report Text: KHUF 280253Z 27005KT 10SM CLR M06/M09 A3045 RMK AO2 SLP318 T10611089 50004
Loading
Personal Weather Stations






























Interactive Weather Map New forecast layout! Learn more

10-Day Weather Forecast

Advertisements
Track Severe Weather on mobile